Philadelphia, Pennsylvania
Traffic Map
Current Weather Conditions
Philadelphia, Pennsylvania
Scattered Clouds
Scattered Clouds
28°
Feels Like: 28°
Wind Chill: 28° Ceiling: Unl
Heat Index: 28° Visibility: 10mi
Dew Point: 16° Wind: 8mph
Humidity: 46% Direction: 280° (W)
Pressure: 30.25in Gusts: 0mph
Raw Report DataKPHL 241754Z 28007KT 10SM SCT050 SCT280 28/16 A3025 RMK AO2 SLP242 T02830156 10289 20217 58016
Traffic Incident Summary
Active as of:
Severity:
Category:
InformationThere was an issue retrieving the traffic information for this location. Please try a different location or try again shortly.
Advertisements
Track Severe Weather on mobile